Time;durP1;ratioP1;P1;durP2;ratioP2;P2;SDS_P1;SDS_P2;PMS_P1;PMS_P2;Temp;Humidity;BMP_temperature;BMP_pressure;BME280_temperature;BME280_humidity;BME280_pressure;Samples;Min_cycle;Max_cycle;Signal;HPM_P1;HPM_P2
2022/07/29 00:01:04;;;;;;;11.67;7.43;;;24.70;74.20;;;;;;5049905;28;20658;-73
2022/07/29 00:03:31;;;;;;;10.83;8.00;;;24.70;74.20;;;;;;5047995;28;20287;-73
2022/07/29 00:05:58;;;;;;;11.73;6.93;;;24.60;74.50;;;;;;5042052;28;20204;-73
2022/07/29 00:08:26;;;;;;;12.07;7.70;;;24.60;74.70;;;;;;5045390;28;20207;-73
2022/07/29 00:10:53;;;;;;;9.43;6.83;;;24.50;75.60;;;;;;5044662;28;20234;-73
2022/07/29 00:13:20;;;;;;;8.37;7.57;;;24.50;75.70;;;;;;5043733;28;20237;-73
2022/07/29 00:15:59;;;;;;;8.80;7.67;;;24.40;75.90;;;;;;5044470;28;20277;-73
2022/07/29 00:18:31;;;;;;;11.27;7.87;;;24.40;76.10;;;;;;5048798;28;20208;-73
2022/07/29 00:20:58;;;;;;;8.83;7.43;;;24.40;76.20;;;;;;5050280;28;20329;-73
2022/07/29 00:23:25;;;;;;;9.90;7.10;;;24.40;76.40;;;;;;5056816;28;20202;-73
2022/07/29 00:25:52;;;;;;;13.27;7.90;;;24.40;76.40;;;;;;5046323;28;20210;-73
2022/07/29 00:28:20;;;;;;;8.30;7.03;;;24.50;76.30;;;;;;5047492;28;20203;-73
2022/07/29 00:30:47;;;;;;;8.07;7.17;;;24.50;76.30;;;;;;5044214;28;20221;-73
2022/07/29 00:33:14;;;;;;;9.87;7.33;;;24.50;76.10;;;;;;5046285;28;20206;-73
2022/07/29 00:35:43;;;;;;;9.03;7.90;;;24.50;75.90;;;;;;5046106;28;20207;-73
2022/07/29 00:38:15;;;;;;;9.47;7.57;;;24.60;75.80;;;;;;5041550;28;20251;-73
2022/07/29 00:40:43;;;;;;;12.13;7.87;;;24.60;75.80;;;;;;5040148;28;20317;-73
2022/07/29 00:43:12;;;;;;;9.20;7.73;;;24.60;75.60;;;;;;5054604;28;20240;-73
2022/07/29 00:45:40;;;;;;;9.97;8.00;;;24.60;75.50;;;;;;5044472;28;20630;-73
2022/07/29 00:48:08;;;;;;;11.07;7.87;;;24.60;75.30;;;;;;5044534;28;20205;-73
2022/07/29 00:50:36;;;;;;;10.03;7.60;;;24.60;75.20;;;;;;5051526;28;20276;-73
2022/07/29 00:53:06;;;;;;;10.90;7.73;;;24.60;75.20;;;;;;5049231;28;20621;-73
2022/07/29 00:55:34;;;;;;;15.03;7.40;;;24.60;75.00;;;;;;5050345;28;20289;-74
2022/07/29 00:58:01;;;;;;;9.33;8.10;;;24.60;74.70;;;;;;5044968;28;20221;-73
2022/07/29 01:00:29;;;;;;;9.37;8.10;;;24.60;74.70;;;;;;5040953;28;20679;-73
2022/07/29 01:02:56;;;;;;;11.83;7.80;;;24.60;74.60;;;;;;5049173;28;20206;-73
2022/07/29 01:05:26;;;;;;;16.87;9.13;;;24.60;74.60;;;;;;5039633;28;20206;-73
2022/07/29 01:08:15;;;;;;;9.87;8.17;;;24.60;74.60;;;;;;5051962;28;20210;-73
2022/07/29 01:10:44;;;;;;;8.73;7.83;;;24.60;74.80;;;;;;5046998;28;20198;-74
2022/07/29 01:13:11;;;;;;;14.47;8.07;;;24.60;75.00;;;;;;5044681;28;20219;-73
2022/07/29 01:15:45;;;;;;;11.77;8.97;;;24.60;75.20;;;;;;5039939;28;20223;-73
2022/07/29 01:18:38;;;;;;;9.70;8.70;;;24.50;75.60;;;;;;5049561;28;20219;-73
2022/07/29 01:21:27;;;;;;;17.10;9.47;;;24.50;75.80;;;;;;5028280;28;20232;-73
2022/07/29 01:24:32;;;;;;;10.77;8.97;;;24.50;76.10;;;;;;5044142;28;21100;-73
2022/07/29 01:27:15;;;;;;;12.73;8.93;;;24.30;76.00;;;;;;5057235;28;20551;-73
2022/07/29 01:29:56;;;;;;;9.60;8.27;;;24.20;76.60;;;;;;5046374;28;20210;-73
2022/07/29 01:32:27;;;;;;;14.20;8.97;;;24.20;76.90;;;;;;5041946;28;20203;-73
2022/07/29 01:35:28;;;;;;;9.20;7.47;;;24.20;77.10;;;;;;5044712;28;20269;-73
2022/07/29 01:38:10;;;;;;;10.17;8.17;;;24.10;77.40;;;;;;5041214;28;20203;-73
2022/07/29 01:40:52;;;;;;;8.37;7.57;;;24.10;77.60;;;;;;5054578;28;20556;-73
2022/07/29 01:43:26;;;;;;;9.40;8.43;;;24.10;77.60;;;;;;5040283;28;20203;-73
2022/07/29 01:46:01;;;;;;;10.47;8.67;;;24.00;77.20;;;;;;5041259;28;20281;-73
2022/07/29 01:48:41;;;;;;;8.93;8.13;;;24.00;77.30;;;;;;5046450;28;20210;-73
2022/07/29 01:51:34;;;;;;;9.80;8.03;;;24.00;77.50;;;;;;5045265;28;20527;-73
2022/07/29 01:54:07;;;;;;;9.87;7.87;;;23.90;77.70;;;;;;5050638;28;20301;-73
2022/07/29 01:56:36;;;;;;;8.60;7.70;;;23.90;77.90;;;;;;5042034;28;20206;-73
2022/07/29 01:59:05;;;;;;;9.10;8.13;;;23.90;77.90;;;;;;5043255;28;20254;-73
2022/07/29 02:01:35;;;;;;;10.63;8.77;;;23.90;77.90;;;;;;5050165;28;20234;-73
2022/07/29 02:04:06;;;;;;;11.87;8.27;;;23.90;77.80;;;;;;5040177;28;20206;-73
2022/07/29 02:06:37;;;;;;;9.10;8.07;;;23.90;77.80;;;;;;5042243;28;20208;-73
2022/07/29 02:09:06;;;;;;;8.40;7.60;;;23.90;77.80;;;;;;5058533;28;20201;-73
2022/07/29 02:11:37;;;;;;;8.33;7.53;;;23.90;77.70;;;;;;5040349;28;20203;-73
2022/07/29 02:14:06;;;;;;;10.47;7.70;;;23.90;77.60;;;;;;5050819;28;20210;-73
2022/07/29 02:16:35;;;;;;;9.77;7.00;;;23.90;77.60;;;;;;5046349;28;20203;-73
2022/07/29 02:19:04;;;;;;;13.53;8.03;;;23.80;77.60;;;;;;5042553;28;20213;-73
2022/07/29 02:21:33;;;;;;;9.67;8.37;;;23.80;77.40;;;;;;5038139;28;20223;-73
2022/07/29 02:24:02;;;;;;;8.67;7.87;;;23.80;77.50;;;;;;5045720;28;20199;-73
2022/07/29 02:26:32;;;;;;;8.57;7.77;;;23.70;77.60;;;;;;5039304;28;20203;-73
2022/07/29 02:29:01;;;;;;;10.93;8.67;;;23.60;77.80;;;;;;5044045;28;20204;-73
2022/07/29 02:31:32;;;;;;;9.17;8.07;;;23.60;78.10;;;;;;5040716;28;20256;-73
2022/07/29 02:34:06;;;;;;;12.27;8.27;;;23.60;78.30;;;;;;5050633;28;20233;-73
2022/07/29 02:36:34;;;;;;;11.33;7.77;;;23.60;78.50;;;;;;5055249;28;20647;-73
2022/07/29 02:39:03;;;;;;;8.77;7.67;;;23.60;78.50;;;;;;5041562;28;20217;-73
2022/07/29 02:41:42;;;;;;;8.70;7.80;;;23.60;78.70;;;;;;5061655;28;20233;-73
2022/07/29 02:44:18;;;;;;;9.40;8.27;;;23.50;78.80;;;;;;5049874;28;20207;-73
2022/07/29 02:46:58;;;;;;;11.27;7.83;;;23.50;78.80;;;;;;5051946;28;20301;-73
2022/07/29 02:49:34;;;;;;;7.90;7.10;;;23.50;78.70;;;;;;5055229;28;20221;-73
2022/07/29 02:52:07;;;;;;;10.60;8.50;;;23.60;78.70;;;;;;5046208;28;20225;-73
2022/07/29 02:54:40;;;;;;;10.27;8.80;;;23.50;78.60;;;;;;5047381;28;20206;-73
2022/07/29 02:57:32;;;;;;;9.07;8.07;;;23.50;78.60;;;;;;5050417;28;20198;-73
2022/07/29 03:00:06;;;;;;;10.03;7.93;;;23.50;78.80;;;;;;5043851;28;20366;-73
2022/07/29 03:02:36;;;;;;;8.37;7.60;;;23.50;78.80;;;;;;5045461;28;20227;-73
2022/07/29 03:05:06;;;;;;;11.80;8.57;;;23.50;78.80;;;;;;5046786;28;20290;-73
2022/07/29 03:07:35;;;;;;;13.70;8.33;;;23.50;78.90;;;;;;5043361;28;20210;-73
2022/07/29 03:10:04;;;;;;;9.83;8.47;;;23.40;79.00;;;;;;5049036;28;20209;-73
2022/07/29 03:12:37;;;;;;;8.60;7.80;;;23.40;79.10;;;;;;5047977;28;20209;-73
2022/07/29 03:15:05;;;;;;;9.43;8.07;;;23.40;79.20;;;;;;5053409;28;20220;-73
2022/07/29 03:17:33;;;;;;;9.83;8.00;;;23.40;79.10;;;;;;5041256;28;20195;-73
2022/07/29 03:20:01;;;;;;;9.43;7.57;;;23.40;79.10;;;;;;5047905;28;20202;-73
2022/07/29 03:22:28;;;;;;;7.97;7.17;;;23.40;78.90;;;;;;5050025;28;20222;-73
2022/07/29 03:24:55;;;;;;;9.87;7.70;;;23.40;78.90;;;;;;5050077;28;20221;-73
2022/07/29 03:27:23;;;;;;;10.47;8.00;;;23.40;78.70;;;;;;5043699;28;20629;-73
2022/07/29 03:29:50;;;;;;;8.13;7.33;;;23.40;78.60;;;;;;5042843;28;20531;-73
2022/07/29 03:32:17;;;;;;;8.23;7.37;;;23.40;78.50;;;;;;5047411;28;20203;-73
2022/07/29 03:34:49;;;;;;;10.63;7.90;;;23.30;78.30;;;;;;5043893;28;20246;-73
2022/07/29 03:37:16;;;;;;;9.10;8.20;;;23.20;78.50;;;;;;5045794;28;20202;-73
2022/07/29 03:39:45;;;;;;;9.27;8.37;;;23.10;78.80;;;;;;5047198;28;20199;-73
2022/07/29 03:42:16;;;;;;;12.10;8.37;;;23.10;79.00;;;;;;5050296;28;20214;-73
2022/07/29 03:44:47;;;;;;;8.90;8.00;;;23.00;79.20;;;;;;5047280;28;20195;-73
2022/07/29 03:47:16;;;;;;;8.83;7.53;;;23.00;79.50;;;;;;5052138;28;20234;-73
2022/07/29 03:49:48;;;;;;;12.57;8.13;;;22.90;79.60;;;;;;5044594;28;20199;-73
2022/07/29 03:52:16;;;;;;;10.97;9.00;;;23.00;79.80;;;;;;5050488;28;20199;-73
2022/07/29 03:54:43;;;;;;;9.53;8.17;;;23.00;79.70;;;;;;5042873;28;20207;-73
2022/07/29 03:57:12;;;;;;;10.37;9.30;;;23.00;79.70;;;;;;5051659;28;20298;-73
2022/07/29 03:59:39;;;;;;;11.37;8.83;;;23.00;79.80;;;;;;5050385;28;20269;-72
2022/07/29 04:02:10;;;;;;;10.30;9.23;;;23.00;79.70;;;;;;5050974;28;20227;-73
2022/07/29 04:04:38;;;;;;;14.83;10.53;;;23.00;79.70;;;;;;5042296;28;20225;-73
2022/07/29 04:07:05;;;;;;;13.53;10.17;;;23.00;79.30;;;;;;5049491;28;20538;-73
2022/07/29 04:09:32;;;;;;;14.07;9.43;;;23.00;78.90;;;;;;5049499;28;20206;-73
2022/07/29 04:12:00;;;;;;;13.87;9.43;;;23.00;78.90;;;;;;5045057;28;20237;-72
2022/07/29 04:14:33;;;;;;;16.73;8.93;;;23.00;79.10;;;;;;5050632;28;20211;-72
2022/07/29 04:17:02;;;;;;;10.17;9.17;;;23.00;79.20;;;;;;5040832;28;20204;-72
2022/07/29 04:19:30;;;;;;;10.43;8.40;;;23.00;79.20;;;;;;5045187;28;20231;-72
2022/07/29 04:21:59;;;;;;;9.13;8.23;;;23.00;79.20;;;;;;5054626;28;20226;-73
2022/07/29 04:24:27;;;;;;;12.27;9.40;;;23.00;79.40;;;;;;5045307;28;20597;-72
2022/07/29 04:26:54;;;;;;;10.80;8.63;;;23.00;79.50;;;;;;5051157;28;20633;-72
2022/07/29 04:29:22;;;;;;;10.50;9.27;;;23.00;79.30;;;;;;5045351;28;20301;-72
2022/07/29 04:31:49;;;;;;;14.00;10.17;;;23.00;79.00;;;;;;5043560;28;20214;-73
2022/07/29 04:34:16;;;;;;;14.73;9.37;;;23.00;79.10;;;;;;5041689;28;20207;-73
2022/07/29 04:36:43;;;;;;;12.67;8.67;;;23.00;79.10;;;;;;5046804;28;20590;-73
2022/07/29 04:39:10;;;;;;;9.30;7.63;;;23.00;79.20;;;;;;5046864;28;20207;-72
2022/07/29 04:41:38;;;;;;;9.17;7.80;;;23.00;79.10;;;;;;5038629;28;20648;-72
2022/07/29 04:44:05;;;;;;;11.37;8.40;;;23.00;79.30;;;;;;5042921;28;20191;-72
2022/07/29 04:46:34;;;;;;;9.87;8.37;;;23.10;79.50;;;;;;5043879;28;20261;-72
2022/07/29 04:49:02;;;;;;;11.13;8.10;;;23.10;79.70;;;;;;5045131;28;20230;-72
2022/07/29 04:51:30;;;;;;;9.30;7.70;;;23.10;79.60;;;;;;5047523;28;20217;-72
2022/07/29 04:53:57;;;;;;;9.10;6.53;;;23.20;79.10;;;;;;5040115;28;20543;-72
2022/07/29 04:56:24;;;;;;;12.20;6.63;;;23.30;78.60;;;;;;5042770;28;20636;-72
2022/07/29 04:58:51;;;;;;;8.03;6.50;;;23.30;77.80;;;;;;5058199;28;20676;-72
2022/07/29 05:01:18;;;;;;;10.73;6.13;;;23.40;76.90;;;;;;5046423;28;20223;-72
2022/07/29 05:03:46;;;;;;;13.47;5.97;;;23.40;76.60;;;;;;5038700;28;20195;-72
2022/07/29 05:06:13;;;;;;;7.20;5.67;;;23.50;76.40;;;;;;5047787;28;20633;-72
2022/07/29 05:08:40;;;;;;;7.90;5.40;;;23.50;76.20;;;;;;5048924;28;20199;-72
2022/07/29 05:11:08;;;;;;;6.53;5.80;;;23.50;76.00;;;;;;5047348;28;20222;-72
2022/07/29 05:13:39;;;;;;;7.67;5.17;;;23.60;75.90;;;;;;5039799;28;20203;-72
2022/07/29 05:16:13;;;;;;;11.23;5.03;;;23.60;75.60;;;;;;5041590;28;20191;-72
2022/07/29 05:18:41;;;;;;;9.03;4.47;;;23.60;75.20;;;;;;5043165;28;20221;-72
2022/07/29 05:21:09;;;;;;;4.40;4.00;;;23.70;75.00;;;;;;5042873;28;20643;-72
2022/07/29 05:23:36;;;;;;;4.67;4.03;;;23.70;74.80;;;;;;5040071;28;20285;-72
2022/07/29 05:26:03;;;;;;;5.63;4.33;;;23.90;74.90;;;;;;5043662;28;20192;-72
2022/07/29 05:28:34;;;;;;;5.17;4.20;;;24.00;74.60;;;;;;5042086;28;20221;-72
2022/07/29 05:31:02;;;;;;;6.83;4.23;;;24.20;74.20;;;;;;5041270;28;20217;-72
2022/07/29 05:33:29;;;;;;;5.70;3.70;;;24.40;73.70;;;;;;5062658;28;20207;-72
2022/07/29 05:36:06;;;;;;;3.87;3.50;;;24.50;72.60;;;;;;5046891;28;20225;-72
2022/07/29 05:38:35;;;;;;;4.40;3.40;;;24.70;71.80;;;;;;5046587;28;20203;-72
2022/07/29 05:41:04;;;;;;;6.70;3.67;;;24.90;71.10;;;;;;5040700;28;20233;-72
2022/07/29 05:43:31;;;;;;;7.87;3.77;;;25.00;70.50;;;;;;5039609;28;20241;-72
2022/07/29 05:45:59;;;;;;;4.50;3.13;;;25.20;69.60;;;;;;5042955;28;20539;-72
2022/07/29 05:48:27;;;;;;;3.57;3.27;;;25.30;68.60;;;;;;5048434;28;20532;-72
2022/07/29 05:50:54;;;;;;;5.53;4.00;;;25.40;68.60;;;;;;5044042;28;20196;-72
2022/07/29 05:53:22;;;;;;;6.30;3.40;;;25.40;67.80;;;;;;5032678;28;20608;-73
2022/07/29 05:55:50;;;;;;;5.43;3.73;;;25.50;68.50;;;;;;5050011;28;20200;-72
2022/07/29 05:58:17;;;;;;;4.50;4.13;;;25.60;67.60;;;;;;5045580;28;20590;-72
2022/07/29 06:00:44;;;;;;;5.77;4.10;;;25.60;67.20;;;;;;5047737;28;20208;-72
2022/07/29 06:03:11;;;;;;;5.30;4.37;;;25.60;67.40;;;;;;5045731;28;20572;-72
2022/07/29 06:05:38;;;;;;;7.33;4.03;;;25.70;67.30;;;;;;5042830;28;20198;-73
2022/07/29 06:08:06;;;;;;;6.87;4.20;;;25.70;67.10;;;;;;5044818;28;20282;-73
2022/07/29 06:10:38;;;;;;;5.47;3.77;;;25.80;66.70;;;;;;5043786;28;20514;-72
2022/07/29 06:13:05;;;;;;;5.70;4.13;;;25.80;66.00;;;;;;5049427;28;20233;-72
2022/07/29 06:15:33;;;;;;;4.83;3.80;;;25.80;65.80;;;;;;5043781;28;20233;-72
2022/07/29 06:18:00;;;;;;;4.53;3.73;;;25.90;66.30;;;;;;5045671;28;20213;-72
2022/07/29 06:20:31;;;;;;;5.47;3.67;;;26.00;66.30;;;;;;5053863;28;20211;-72
2022/07/29 06:22:59;;;;;;;4.03;3.63;;;26.10;64.80;;;;;;5055127;28;20234;-72
2022/07/29 06:25:30;;;;;;;3.93;3.20;;;26.20;64.20;;;;;;5063688;28;20202;-72
2022/07/29 06:27:57;;;;;;;4.53;3.23;;;26.30;63.70;;;;;;5047183;28;20210;-72
2022/07/29 06:30:24;;;;;;;6.77;3.90;;;26.40;63.60;;;;;;5051532;28;20206;-72
2022/07/29 06:32:52;;;;;;;5.70;3.37;;;26.50;63.20;;;;;;5045818;28;20293;-72
2022/07/29 06:35:19;;;;;;;6.10;3.50;;;26.70;63.20;;;;;;5045191;28;20202;-72
2022/07/29 06:38:06;;;;;;;4.70;3.30;;;26.80;63.00;;;;;;5047408;28;20224;-72
2022/07/29 06:41:07;;;;;;;4.10;2.97;;;26.90;62.10;;;;;;5043580;28;20554;-72
2022/07/29 06:43:41;;;;;;;4.40;3.43;;;27.10;61.80;;;;;;5040705;28;20317;-72
2022/07/29 06:46:19;;;;;;;3.90;2.87;;;27.20;61.30;;;;;;5066225;28;20224;-72
2022/07/29 06:48:47;;;;;;;6.33;3.50;;;27.40;61.20;;;;;;5047683;28;20195;-72
2022/07/29 06:51:14;;;;;;;5.03;3.03;;;27.60;60.30;;;;;;5045465;28;20198;-72
2022/07/29 06:53:42;;;;;;;3.40;3.03;;;27.70;60.30;;;;;;5051518;28;20606;-73
2022/07/29 06:56:35;;;;;;;4.97;3.70;;;27.80;60.30;;;;;;5046927;28;20308;-72
2022/07/29 06:59:06;;;;;;;4.77;3.30;;;28.00;59.30;;;;;;5047017;28;20245;-72
2022/07/29 07:01:34;;;;;;;3.73;3.43;;;28.20;59.30;;;;;;5045145;28;20294;-72
2022/07/29 07:04:02;;;;;;;5.33;3.97;;;28.30;58.60;;;;;;5051768;28;20209;-72
2022/07/29 07:06:29;;;;;;;3.90;3.23;;;28.40;58.20;;;;;;5055281;28;20210;-73
2022/07/29 07:08:56;;;;;;;4.10;3.40;;;28.50;58.00;;;;;;5052399;28;20191;-74
2022/07/29 07:11:24;;;;;;;4.57;3.57;;;28.60;58.20;;;;;;5051235;28;20211;-73
2022/07/29 07:13:51;;;;;;;5.07;3.50;;;28.80;58.70;;;;;;5046935;28;20301;-73
2022/07/29 07:16:18;;;;;;;4.13;3.77;;;29.00;58.50;;;;;;5047321;28;20199;-73
2022/07/29 07:18:45;;;;;;;4.27;3.53;;;29.20;58.10;;;;;;5052596;28;20201;-73
2022/07/29 07:21:13;;;;;;;4.63;3.67;;;29.50;57.90;;;;;;5048336;28;20210;-74
2022/07/29 07:23:46;;;;;;;5.37;3.27;;;29.60;57.30;;;;;;5054117;28;20230;-74
2022/07/29 07:26:14;;;;;;;6.83;3.87;;;29.80;56.90;;;;;;5055879;28;20622;-74
2022/07/29 07:28:41;;;;;;;5.03;3.13;;;30.00;56.60;;;;;;5044607;28;20234;-73
2022/07/29 07:31:09;;;;;;;3.97;2.93;;;30.20;56.20;;;;;;5043550;28;20258;-73
2022/07/29 07:33:36;;;;;;;3.37;3.07;;;30.30;55.70;;;;;;5070682;28;20194;-74
2022/07/29 07:36:03;;;;;;;3.90;3.17;;;30.50;55.00;;;;;;5045067;28;20632;-73
2022/07/29 07:38:31;;;;;;;4.33;3.40;;;30.60;54.40;;;;;;5061771;28;20275;-73
2022/07/29 07:40:58;;;;;;;3.40;2.80;;;30.70;54.30;;;;;;5055591;28;20241;-73
2022/07/29 07:43:25;;;;;;;5.83;3.47;;;30.80;54.20;;;;;;5042524;28;20274;-73
2022/07/29 07:45:52;;;;;;;5.20;2.93;;;31.00;53.80;;;;;;5047716;28;20202;-74
2022/07/29 07:48:20;;;;;;;5.57;3.53;;;31.10;53.20;;;;;;5048016;28;20214;-74
2022/07/29 07:50:49;;;;;;;3.83;3.23;;;31.20;53.10;;;;;;5058246;28;20248;-74
2022/07/29 07:53:16;;;;;;;4.73;3.67;;;31.30;53.00;;;;;;5062480;28;20194;-74
2022/07/29 07:55:44;;;;;;;6.50;3.30;;;31.40;52.50;;;;;;5043670;28;20231;-72
2022/07/29 07:58:32;;;;;;;5.60;3.47;;;31.50;52.00;;;;;;5059955;28;20223;-72
2022/07/29 08:00:59;;;;;;;4.40;3.70;;;31.60;51.30;;;;;;5052659;28;20629;-73
2022/07/29 08:03:26;;;;;;;3.83;3.27;;;31.50;51.20;;;;;;5056702;28;20284;-73
2022/07/29 08:05:54;;;;;;;3.87;3.53;;;31.50;51.50;;;;;;5047646;28;20703;-72
2022/07/29 08:08:21;;;;;;;8.17;4.53;;;31.40;51.80;;;;;;5050858;28;20289;-73
2022/07/29 08:10:57;;;;;;;4.30;3.73;;;31.50;51.60;;;;;;5051080;28;20289;-73
2022/07/29 08:13:30;;;;;;;6.10;4.33;;;31.40;51.90;;;;;;5059809;28;20249;-73
2022/07/29 08:15:59;;;;;;;4.80;4.13;;;31.50;51.90;;;;;;5062654;28;20199;-74
2022/07/29 08:18:28;;;;;;;6.33;4.20;;;31.60;51.50;;;;;;5050805;28;20207;-74
2022/07/29 08:20:56;;;;;;;5.07;3.47;;;31.70;51.90;;;;;;5059279;28;20661;-74
2022/07/29 08:23:24;;;;;;;4.77;3.97;;;31.80;52.00;;;;;;5046693;28;20241;-74
2022/07/29 08:25:51;;;;;;;4.00;3.33;;;32.00;52.00;;;;;;5055477;28;20212;-74
2022/07/29 08:28:21;;;;;;;4.10;3.70;;;32.10;51.80;;;;;;5048716;28;20198;-74
2022/07/29 08:30:52;;;;;;;6.87;4.17;;;32.30;51.30;;;;;;5052719;28;20245;-73
2022/07/29 08:33:19;;;;;;;7.20;3.80;;;32.40;51.00;;;;;;5054068;28;20214;-74
2022/07/29 08:35:46;;;;;;;5.07;4.10;;;32.60;50.60;;;;;;5051201;28;20274;-74
2022/07/29 08:38:13;;;;;;;5.10;4.40;;;32.70;49.90;;;;;;5061901;28;20207;-74
2022/07/29 08:40:41;;;;;;;5.13;4.27;;;32.80;49.80;;;;;;5047737;28;20199;-73
2022/07/29 08:43:08;;;;;;;4.83;3.70;;;32.90;50.20;;;;;;5044634;28;20587;-73
2022/07/29 08:45:45;;;;;;;6.37;4.00;;;33.00;49.60;;;;;;5051080;28;20668;-73
2022/07/29 08:48:18;;;;;;;4.80;4.20;;;33.00;49.60;;;;;;5042500;28;20234;-73
2022/07/29 08:50:47;;;;;;;6.80;4.60;;;33.10;49.20;;;;;;5047332;28;20641;-72
2022/07/29 08:53:17;;;;;;;7.53;4.00;;;33.20;48.60;;;;;;5062495;28;20245;-72
2022/07/29 08:55:47;;;;;;;7.87;3.30;;;33.20;48.60;;;;;;5039090;28;20203;-72
2022/07/29 08:58:14;;;;;;;5.70;3.93;;;33.40;49.00;;;;;;5058113;28;20198;-72
2022/07/29 09:00:48;;;;;;;4.93;3.63;;;33.40;48.70;;;;;;5049153;28;20195;-74
2022/07/29 09:03:19;;;;;;;4.80;3.50;;;33.60;48.30;;;;;;5046256;28;20216;-74
2022/07/29 09:05:48;;;;;;;5.47;4.37;;;33.70;48.00;;;;;;5042633;28;20249;-74
2022/07/29 09:08:16;;;;;;;4.77;4.30;;;33.80;47.50;;;;;;5061954;28;20207;-74
2022/07/29 09:10:44;;;;;;;4.07;3.67;;;33.90;47.00;;;;;;5053452;28;20634;-74
2022/07/29 09:13:12;;;;;;;5.00;3.37;;;34.00;46.80;;;;;;5041235;28;20202;-74
2022/07/29 09:15:39;;;;;;;4.47;4.07;;;33.90;46.30;;;;;;5054636;28;20700;-72
2022/07/29 09:18:06;;;;;;;5.27;3.50;;;34.00;46.40;;;;;;5040273;28;20266;-72
2022/07/29 09:23:41;;;;;;;4.23;3.93;;;34.00;45.40;;;;;;5042520;28;20626;-73
2022/07/29 09:26:08;;;;;;;4.10;3.80;;;34.10;46.00;;;;;;5055444;28;20203;-72
2022/07/29 09:28:41;;;;;;;3.30;3.00;;;34.20;45.70;;;;;;5049469;28;20341;-72
2022/07/29 09:31:09;;;;;;;5.63;3.80;;;34.20;46.20;;;;;;5048449;28;20285;-72
2022/07/29 09:33:39;;;;;;;4.67;3.43;;;34.30;46.40;;;;;;5043222;28;20231;-72
2022/07/29 09:36:08;;;;;;;4.60;2.97;;;34.50;45.50;;;;;;5057350;28;20587;-72
2022/07/29 09:38:37;;;;;;;4.97;3.20;;;34.50;44.30;;;;;;5038479;28;20199;-72
2022/07/29 09:41:05;;;;;;;7.33;3.60;;;34.50;44.30;;;;;;5036596;28;20214;-72
2022/07/29 09:43:33;;;;;;;3.73;3.07;;;34.50;45.00;;;;;;5036751;28;20560;-72
2022/07/29 09:46:11;;;;;;;3.60;3.30;;;34.60;44.60;;;;;;5041375;28;20274;-72
2022/07/29 09:48:39;;;;;;;5.10;3.50;;;34.70;44.80;;;;;;5059785;28;20230;-72
2022/07/29 09:51:20;;;;;;;5.23;3.27;;;34.80;44.20;;;;;;5042270;28;20584;-73
2022/07/29 09:54:25;;;;;;;4.53;3.67;;;35.00;43.30;;;;;;5038981;28;20219;-73
2022/07/29 09:56:54;;;;;;;3.60;3.10;;;35.00;43.70;;;;;;5057872;28;20213;-73
2022/07/29 09:59:26;;;;;;;5.20;3.60;;;35.00;42.20;;;;;;5048460;28;20617;-72
2022/07/29 10:01:53;;;;;;;3.77;3.17;;;35.00;42.10;;;;;;5043857;28;20207;-73
2022/07/29 10:04:21;;;;;;;8.67;3.50;;;35.00;42.40;;;;;;5044755;28;20689;-72
2022/07/29 10:07:03;;;;;;;3.67;3.10;;;35.00;42.00;;;;;;5026056;28;20199;-72
2022/07/29 10:09:33;;;;;;;4.73;3.53;;;35.00;41.20;;;;;;5041611;28;20600;-72
2022/07/29 10:12:13;;;;;;;3.70;3.30;;;34.90;41.30;;;;;;5042766;28;20719;-72
2022/07/29 10:14:41;;;;;;;3.40;3.10;;;34.80;41.30;;;;;;5048452;28;20212;-72
2022/07/29 10:17:10;;;;;;;3.83;3.40;;;34.80;42.40;;;;;;5044490;28;20203;-72
2022/07/29 10:19:39;;;;;;;5.97;3.40;;;34.90;42.40;;;;;;5044496;28;20277;-72
2022/07/29 10:22:08;;;;;;;3.83;3.50;;;35.10;43.00;;;;;;5042309;28;20203;-72
2022/07/29 10:24:37;;;;;;;4.60;3.23;;;35.20;42.70;;;;;;5046078;28;20226;-72
2022/07/29 10:27:07;;;;;;;5.13;3.60;;;35.30;41.60;;;;;;5050285;28;20226;-72
2022/07/29 10:29:35;;;;;;;3.97;3.03;;;35.40;40.90;;;;;;5041462;28;20505;-72
2022/07/29 10:32:43;;;;;;;6.50;3.17;;;35.30;41.50;;;;;;5041989;28;20609;-72
2022/07/29 10:35:44;;;;;;;5.57;3.97;;;35.30;42.40;;;;;;5061091;28;20229;-72
2022/07/29 10:38:33;;;;;;;3.43;3.13;;;35.20;41.70;;;;;;5049031;28;20209;-72
2022/07/29 10:43:49;;;;;;;5.63;3.53;;;35.30;42.20;;;;;;5042708;28;20337;-72
2022/07/29 10:46:18;;;;;;;5.43;3.47;;;35.40;41.50;;;;;;5051295;28;20217;-72
2022/07/29 10:49:06;;;;;;;6.43;3.50;;;35.40;40.80;;;;;;5049007;28;20253;-73
2022/07/29 10:51:52;;;;;;;4.33;3.83;;;35.50;40.30;;;;;;5048458;28;20617;-72
2022/07/29 10:54:35;;;;;;;4.03;3.63;;;35.50;40.00;;;;;;5052689;28;20506;-72
2022/07/29 10:57:20;;;;;;;3.33;3.10;;;35.60;40.10;;;;;;5040899;28;20230;-72
2022/07/29 11:00:00;;;;;;;3.77;3.37;;;35.80;40.60;;;;;;5035932;28;20581;-72
2022/07/29 11:02:31;;;;;;;5.03;3.17;;;35.90;40.60;;;;;;5048328;28;20207;-72
2022/07/29 11:05:20;;;;;;;5.17;3.03;;;36.00;41.20;;;;;;5051609;28;20599;-72
2022/07/29 11:08:09;;;;;;;6.33;3.80;;;36.30;41.10;;;;;;5046075;28;20219;-72
2022/07/29 11:10:51;;;;;;;5.53;3.40;;;36.50;40.90;;;;;;5044042;28;20586;-72
2022/07/29 11:13:43;;;;;;;5.07;4.00;;;36.70;40.50;;;;;;5061140;28;20215;-72
2022/07/29 11:16:13;;;;;;;3.25;3.05;;;36.80;40.30;;;;;;5048234;28;20203;-72
2022/07/29 11:19:10;;;;;;;4.90;3.70;;;36.80;39.80;;;;;;5046141;28;20284;-73
2022/07/29 11:21:41;;;;;;;6.15;3.20;;;36.80;40.20;;;;;;5049923;28;20211;-73
2022/07/29 11:24:27;;;;;;;7.70;3.45;;;36.90;40.40;;;;;;5044667;28;20219;-73
2022/07/29 11:27:12;;;;;;;3.78;3.35;;;36.90;40.30;;;;;;5045983;28;20219;-72
2022/07/29 11:29:48;;;;;;;8.87;3.40;;;37.10;40.40;;;;;;5044673;28;20591;-72
2022/07/29 11:32:18;;;;;;;7.18;3.60;;;37.10;39.40;;;;;;5039635;28;20207;-72
2022/07/29 11:35:10;;;;;;;4.95;3.80;;;37.10;39.10;;;;;;5047468;28;20225;-73
2022/07/29 11:37:46;;;;;;;5.50;3.97;;;37.10;38.90;;;;;;5048503;28;20220;-72
2022/07/29 11:40:21;;;;;;;5.30;3.80;;;36.90;38.90;;;;;;5047810;28;20729;-72
2022/07/29 11:42:49;;;;;;;4.10;3.63;;;36.80;39.40;;;;;;5044548;28;20557;-73
2022/07/29 11:45:21;;;;;;;4.75;3.72;;;36.70;39.70;;;;;;5041960;28;20240;-73
2022/07/29 11:48:15;;;;;;;8.55;3.65;;;36.70;38.60;;;;;;5044713;28;20198;-73
2022/07/29 11:50:58;;;;;;;4.20;3.75;;;36.60;38.70;;;;;;5047166;28;20393;-73
2022/07/29 11:53:26;;;;;;;4.30;3.70;;;36.50;39.00;;;;;;5044843;28;20203;-73
2022/07/29 11:55:59;;;;;;;3.83;3.33;;;36.40;39.40;;;;;;5049504;28;20298;-73
2022/07/29 11:58:28;;;;;;;5.70;3.73;;;36.50;39.80;;;;;;5055515;28;20256;-73
2022/07/29 12:00:56;;;;;;;3.80;3.50;;;36.50;40.10;;;;;;5048111;28;20851;-72
2022/07/29 12:03:28;;;;;;;4.18;3.10;;;36.60;40.10;;;;;;5044670;28;20240;-73
2022/07/29 12:06:10;;;;;;;5.75;3.83;;;36.70;39.80;;;;;;5046782;28;20191;-73
2022/07/29 12:08:42;;;;;;;3.63;3.33;;;36.80;38.80;;;;;;5049550;28;20686;-73
2022/07/29 12:11:19;;;;;;;4.50;3.88;;;36.70;39.50;;;;;;5051320;28;20241;-73
2022/07/29 12:13:49;;;;;;;4.33;3.13;;;36.70;38.60;;;;;;5042968;28;20213;-73
2022/07/29 12:16:17;;;;;;;4.83;3.60;;;36.70;38.50;;;;;;5040843;28;20290;-73
2022/07/29 12:19:02;;;;;;;4.83;3.50;;;36.70;38.90;;;;;;5040333;28;20282;-73
2022/07/29 12:21:44;;;;;;;6.53;3.43;;;36.70;38.90;;;;;;5041899;28;20237;-73
2022/07/29 12:24:25;;;;;;;3.97;3.35;;;36.70;38.60;;;;;;5043764;28;20233;-73
2022/07/29 12:26:55;;;;;;;3.93;3.50;;;36.60;38.50;;;;;;5053075;28;20199;-73
2022/07/29 12:29:24;;;;;;;6.40;3.75;;;36.60;37.90;;;;;;5050619;28;20210;-72
2022/07/29 12:32:03;;;;;;;3.53;3.23;;;36.50;38.30;;;;;;5043930;28;20276;-73
2022/07/29 12:34:32;;;;;;;5.18;3.42;;;36.40;39.20;;;;;;5047616;28;20205;-73
2022/07/29 12:36:59;;;;;;;3.43;3.20;;;36.30;39.60;;;;;;5040518;28;20199;-73
2022/07/29 12:39:27;;;;;;;5.87;2.93;;;36.40;39.00;;;;;;5060321;28;20214;-73
2022/07/29 12:41:55;;;;;;;3.33;3.03;;;36.40;39.10;;;;;;5045999;28;20238;-73
2022/07/29 12:44:47;;;;;;;3.80;3.50;;;36.40;38.60;;;;;;5045092;28;20302;-73
2022/07/29 12:47:15;;;;;;;6.47;3.47;;;36.50;38.20;;;;;;5046003;28;20663;-72
2022/07/29 12:49:42;;;;;;;9.87;3.20;;;36.50;37.80;;;;;;5048783;28;20209;-73
2022/07/29 12:52:29;;;;;;;6.03;3.93;;;36.60;38.20;;;;;;5052248;28;20207;-73
2022/07/29 12:54:57;;;;;;;8.20;3.60;;;36.60;37.90;;;;;;5050936;28;20221;-73
2022/07/29 12:57:25;;;;;;;3.23;2.93;;;36.60;38.40;;;;;;5048199;28;20211;-74
2022/07/29 13:00:10;;;;;;;6.10;3.40;;;36.60;38.40;;;;;;5043110;28;20318;-73
2022/07/29 13:02:38;;;;;;;3.28;2.97;;;36.70;38.70;;;;;;5045450;28;20537;-74
2022/07/29 13:05:10;;;;;;;3.70;3.20;;;36.70;36.90;;;;;;5053262;28;20226;-74
2022/07/29 13:07:38;;;;;;;2.85;2.63;;;36.60;37.20;;;;;;5044440;28;20207;-74
2022/07/29 13:10:23;;;;;;;5.23;3.03;;;36.50;36.80;;;;;;5051052;28;20250;-74
2022/07/29 13:13:09;;;;;;;2.97;2.67;;;36.30;37.10;;;;;;5046604;28;20206;-74
2022/07/29 13:15:40;;;;;;;5.70;3.17;;;36.10;38.00;;;;;;5057169;28;20229;-74